<?xml version="1.0" encoding="UTF-8" ?>
		<gpx
		 version="1.0"
		 xmlns:xsi="http://www.w3.org/2001/XMLSchema-instance"
		 xmlns="http://www.topografix.com/GPX/1/0"
		 xsi:schemaLocation="http://www.topografix.com/GPX/1/0 http://www.topografix.com/GPX/1/0/gpx.xsd"
		 creator="http://www.openrunner.com">
			<trk>
			    <name>--Sainte-Eulalie-- OR-5833316:Liaison Sainte-Eulalie TMA</name>
			    <trkseg>
	
			<trkpt lat="44.81495" lon="4.21795">
			 <ele>1436</ele>
			<time>2016-03-16T17:38:01Z</time>
			</trkpt>
		
			<trkpt lat="44.81479" lon="4.21763">
			 <ele>1431</ele>
			<time>2016-03-16T17:40:01Z</time>
			</trkpt>
		
			<trkpt lat="44.8144" lon="4.21783">
			 <ele>1428</ele>
			<time>2016-03-16T17:42:01Z</time>
			</trkpt>
		
			<trkpt lat="44.81417" lon="4.21758">
			 <ele>1422</ele>
			<time>2016-03-16T17:44:01Z</time>
			</trkpt>
		
			<trkpt lat="44.81392" lon="4.21739">
			 <ele>1419</ele>
			<time>2016-03-16T17:46:01Z</time>
			</trkpt>
		
			<trkpt lat="44.81373" lon="4.21712">
			 <ele>1415</ele>
			<time>2016-03-16T17:48:01Z</time>
			</trkpt>
		
			<trkpt lat="44.81339" lon="4.21693">
			 <ele>1411</ele>
			<time>2016-03-16T17:50:01Z</time>
			</trkpt>
		
			<trkpt lat="44.81328" lon="4.21658">
			 <ele>1406</ele>
			<time>2016-03-16T17:52:01Z</time>
			</trkpt>
		
			<trkpt lat="44.81305" lon="4.21629">
			 <ele>1401</ele>
			<time>2016-03-16T17:54:01Z</time>
			</trkpt>
		
			<trkpt lat="44.81308" lon="4.216">
			 <ele>1398</ele>
			<time>2016-03-16T17:56:01Z</time>
			</trkpt>
		
			<trkpt lat="44.81277" lon="4.21614">
			 <ele>1397</ele>
			<time>2016-03-16T17:58:01Z</time>
			</trkpt>
		
			<trkpt lat="44.81267" lon="4.21596">
			 <ele>1393</ele>
			<time>2016-03-16T18:00:01Z</time>
			</trkpt>
		
			<trkpt lat="44.81233" lon="4.21606">
			 <ele>1391</ele>
			<time>2016-03-16T18:02:01Z</time>
			</trkpt>
		
			<trkpt lat="44.81221" lon="4.2159">
			 <ele>1387</ele>
			<time>2016-03-16T18:04:01Z</time>
			</trkpt>
		
			<trkpt lat="44.81216" lon="4.21602">
			 <ele>1388</ele>
			<time>2016-03-16T18:06:01Z</time>
			</trkpt>
		
			<trkpt lat="44.812" lon="4.2158">
			 <ele>1383</ele>
			<time>2016-03-16T18:08:01Z</time>
			</trkpt>
		
			<trkpt lat="44.81168" lon="4.21578">
			 <ele>1379</ele>
			<time>2016-03-16T18:10:01Z</time>
			</trkpt>
		
			<trkpt lat="44.81157" lon="4.21583">
			 <ele>1377</ele>
			<time>2016-03-16T18:12:01Z</time>
			</trkpt>
		
			<trkpt lat="44.81147" lon="4.21558">
			 <ele>1374</ele>
			<time>2016-03-16T18:14:01Z</time>
			</trkpt>
		
			<trkpt lat="44.81112" lon="4.21567">
			 <ele>1369</ele>
			<time>2016-03-16T18:16:01Z</time>
			</trkpt>
		
			<trkpt lat="44.81098" lon="4.2155">
			 <ele>1366</ele>
			<time>2016-03-16T18:18:01Z</time>
			</trkpt>
		
			<trkpt lat="44.81074" lon="4.2155">
			 <ele>1362</ele>
			<time>2016-03-16T18:20:01Z</time>
			</trkpt>
		
			<trkpt lat="44.81043" lon="4.21502">
			 <ele>1353</ele>
			<time>2016-03-16T18:22:01Z</time>
			</trkpt>
		
			<trkpt lat="44.81025" lon="4.21493">
			 <ele>1350</ele>
			<time>2016-03-16T18:24:01Z</time>
			</trkpt>
		
			<trkpt lat="44.81024" lon="4.21457">
			 <ele>1347</ele>
			<time>2016-03-16T18:26:01Z</time>
			</trkpt>
		
			<trkpt lat="44.81006" lon="4.21436">
			 <ele>1342</ele>
			<time>2016-03-16T18:28:01Z</time>
			</trkpt>
		
			<trkpt lat="44.80993" lon="4.2142">
			 <ele>1339</ele>
			<time>2016-03-16T18:30:01Z</time>
			</trkpt>
		
			<trkpt lat="44.80969" lon="4.21438">
			 <ele>1337</ele>
			<time>2016-03-16T18:32:01Z</time>
			</trkpt>
		
			<trkpt lat="44.80952" lon="4.21426">
			 <ele>1333</ele>
			<time>2016-03-16T18:34:01Z</time>
			</trkpt>
		
			<trkpt lat="44.80942" lon="4.2136">
			 <ele>1327</ele>
			<time>2016-03-16T18:36:01Z</time>
			</trkpt>
		
			<trkpt lat="44.80916" lon="4.21361">
			 <ele>1323</ele>
			<time>2016-03-16T18:38:01Z</time>
			</trkpt>
		
			<trkpt lat="44.8088" lon="4.21321">
			 <ele>1317</ele>
			<time>2016-03-16T18:40:01Z</time>
			</trkpt>
		
			<trkpt lat="44.80846" lon="4.21284">
			 <ele>1311</ele>
			<time>2016-03-16T18:42:01Z</time>
			</trkpt>
		
			<trkpt lat="44.80799" lon="4.21248">
			 <ele>1304</ele>
			<time>2016-03-16T18:44:01Z</time>
			</trkpt>
		
			<trkpt lat="44.80768" lon="4.21226">
			 <ele>1300</ele>
			<time>2016-03-16T18:46:01Z</time>
			</trkpt>
		
			<trkpt lat="44.8076" lon="4.21179">
			 <ele>1297</ele>
			<time>2016-03-16T18:48:01Z</time>
			</trkpt>
		
			<trkpt lat="44.80747" lon="4.21131">
			 <ele>1294</ele>
			<time>2016-03-16T18:50:01Z</time>
			</trkpt>
		
			<trkpt lat="44.80745" lon="4.21063">
			 <ele>1291</ele>
			<time>2016-03-16T18:52:01Z</time>
			</trkpt>
		
			<trkpt lat="44.80782" lon="4.21008">
			 <ele>1291</ele>
			<time>2016-03-16T18:54:01Z</time>
			</trkpt>
		
			<trkpt lat="44.80799" lon="4.20943">
			 <ele>1289</ele>
			<time>2016-03-16T18:56:01Z</time>
			</trkpt>
		
			<trkpt lat="44.80809" lon="4.20876">
			 <ele>1288</ele>
			<time>2016-03-16T18:58:01Z</time>
			</trkpt>
		
			<trkpt lat="44.80811" lon="4.20823">
			 <ele>1286</ele>
			<time>2016-03-16T19:00:01Z</time>
			</trkpt>
		
			<trkpt lat="44.80846" lon="4.20737">
			 <ele>1283</ele>
			<time>2016-03-16T19:02:01Z</time>
			</trkpt>
		
			<trkpt lat="44.80889" lon="4.20641">
			 <ele>1276</ele>
			<time>2016-03-16T19:04:01Z</time>
			</trkpt>
		
			<trkpt lat="44.80952" lon="4.20521">
			 <ele>1272</ele>
			<time>2016-03-16T19:06:01Z</time>
			</trkpt>
		
			<trkpt lat="44.80958" lon="4.20468">
			 <ele>1271</ele>
			<time>2016-03-16T19:08:01Z</time>
			</trkpt>
		
			<trkpt lat="44.80955" lon="4.20371">
			 <ele>1266</ele>
			<time>2016-03-16T19:10:01Z</time>
			</trkpt>
		
			<trkpt lat="44.80949" lon="4.20257">
			 <ele>1259</ele>
			<time>2016-03-16T19:12:01Z</time>
			</trkpt>
		
			<trkpt lat="44.80936" lon="4.20199">
			 <ele>1256</ele>
			<time>2016-03-16T19:14:01Z</time>
			</trkpt>
		
			<trkpt lat="44.80883" lon="4.20045">
			 <ele>1250</ele>
			<time>2016-03-16T19:16:01Z</time>
			</trkpt>
		
			<trkpt lat="44.8084" lon="4.19939">
			 <ele>1246</ele>
			<time>2016-03-16T19:18:01Z</time>
			</trkpt>
		
			<trkpt lat="44.80815" lon="4.19866">
			 <ele>1245</ele>
			<time>2016-03-16T19:20:01Z</time>
			</trkpt>
		
			<trkpt lat="44.80759" lon="4.19802">
			 <ele>1249</ele>
			<time>2016-03-16T19:22:01Z</time>
			</trkpt>
		
			<trkpt lat="44.80754" lon="4.19722">
			 <ele>1248</ele>
			<time>2016-03-16T19:24:01Z</time>
			</trkpt>
		
			<trkpt lat="44.80729" lon="4.19662">
			 <ele>1245</ele>
			<time>2016-03-16T19:26:01Z</time>
			</trkpt>
		
			<trkpt lat="44.80748" lon="4.19607">
			 <ele>1242</ele>
			<time>2016-03-16T19:28:01Z</time>
			</trkpt>
		
			<trkpt lat="44.80799" lon="4.19499">
			 <ele>1234</ele>
			<time>2016-03-16T19:30:01Z</time>
			</trkpt>
		
			<trkpt lat="44.8086" lon="4.19385">
			 <ele>1219</ele>
			<time>2016-03-16T19:32:01Z</time>
			</trkpt>
		
			<trkpt lat="44.80901" lon="4.19234">
			 <ele>1201</ele>
			<time>2016-03-16T19:34:01Z</time>
			</trkpt>
		
			<trkpt lat="44.80952" lon="4.19175">
			 <ele>1196</ele>
			<time>2016-03-16T19:36:01Z</time>
			</trkpt>
		
			<trkpt lat="44.80969" lon="4.1915">
			 <ele>1201</ele>
			<time>2016-03-16T19:38:01Z</time>
			</trkpt>
		
			<trkpt lat="44.80952" lon="4.19113">
			 <ele>1209</ele>
			<time>2016-03-16T19:40:01Z</time>
			</trkpt>
		
			<trkpt lat="44.80983" lon="4.19113">
			 <ele>1211</ele>
			<time>2016-03-16T19:42:01Z</time>
			</trkpt>
		
			<trkpt lat="44.8096" lon="4.19072">
			 <ele>1218</ele>
			<time>2016-03-16T19:44:01Z</time>
			</trkpt>
		
			<trkpt lat="44.80922" lon="4.1904">
			 <ele>1221</ele>
			<time>2016-03-16T19:46:01Z</time>
			</trkpt>
		
			<trkpt lat="44.80966" lon="4.1898">
			 <ele>1231</ele>
			<time>2016-03-16T19:48:01Z</time>
			</trkpt>
		
				</trkseg>
			   </trk>
			 </gpx>
	